Time;durP1;ratioP1;P1;durP2;ratioP2;P2;SDS_P1;SDS_P2;PMS_P1;PMS_P2;Temp;Humidity;BMP_temperature;BMP_pressure;BME280_temperature;BME280_humidity;BME280_pressure;Samples;Min_cycle;Max_cycle;Signal;HPM_P1;HPM_P2
2022/02/12 00:00:51;;;;;;;14.15;6.18;;;1.80;99.90;;;;;;4981735;28;20050;-81
2022/02/12 05:59:46;;;;;;;13.02;7.32;;;-1.30;99.90;;;;;;5075854;23;20138;-82
2022/02/12 06:02:14;;;;;;;14.02;7.50;;;-1.30;99.90;;;;;;4937936;29;20044;-82
2022/02/12 06:07:16;;;;;;;11.57;7.25;;;-1.20;99.90;;;;;;4935981;23;20405;-77
2022/02/12 06:09:43;;;;;;;11.77;7.22;;;-1.30;99.90;;;;;;4914719;29;20075;-77
2022/02/12 06:12:11;;;;;;;12.63;7.28;;;-1.40;99.90;;;;;;4920580;29;20048;-76
2022/02/12 06:14:38;;;;;;;11.88;7.07;;;-1.40;99.90;;;;;;4902143;29;20131;-79
2022/02/12 06:17:06;;;;;;;12.60;7.55;;;-1.50;99.90;;;;;;4902421;29;20044;-77
2022/02/12 06:19:33;;;;;;;11.40;7.03;;;-1.50;99.90;;;;;;4918774;29;20048;-78
2022/02/12 06:22:01;;;;;;;15.70;7.80;;;-1.60;99.90;;;;;;4921914;29;20131;-78
2022/02/12 06:24:28;;;;;;;11.25;7.50;;;-1.60;99.90;;;;;;4885624;29;20052;-79
2022/02/12 06:26:57;;;;;;;12.65;7.90;;;-1.70;99.90;;;;;;4903448;29;20526;-77
2022/02/12 06:29:24;;;;;;;13.02;7.93;;;-1.70;99.90;;;;;;4912604;29;20103;-78
2022/02/12 06:31:51;;;;;;;13.50;8.02;;;-1.80;99.90;;;;;;4926221;29;20135;-79
2022/02/12 06:34:20;;;;;;;12.20;6.90;;;-1.80;99.90;;;;;;4920883;29;20135;-79
2022/02/12 06:36:47;;;;;;;11.50;7.00;;;-1.80;99.90;;;;;;4921090;29;20112;-80
2022/02/12 06:39:14;;;;;;;12.90;7.60;;;-1.80;99.90;;;;;;4921284;29;20142;-79
2022/02/12 06:41:42;;;;;;;11.30;7.00;;;-1.80;99.90;;;;;;4922130;29;20108;-78
2022/02/12 06:44:09;;;;;;;10.18;6.80;;;-1.80;99.90;;;;;;4922112;29;20067;-79
2022/02/12 06:46:36;;;;;;;11.20;6.55;;;-1.80;99.90;;;;;;4922959;29;20135;-78
2022/02/12 06:49:03;;;;;;;12.40;7.47;;;-1.80;99.90;;;;;;4921592;29;20479;-78
2022/02/12 06:51:32;;;;;;;12.07;7.55;;;-1.80;99.90;;;;;;4912615;29;20060;-79
2022/02/12 06:53:59;;;;;;;12.60;7.70;;;-1.70;99.90;;;;;;4914491;29;20083;-79
2022/02/12 06:56:26;;;;;;;11.45;7.68;;;-1.60;99.90;;;;;;4929064;29;20087;-81
2022/02/12 06:58:53;;;;;;;11.77;7.18;;;-1.60;99.90;;;;;;4925812;29;20564;-80
2022/02/12 07:01:20;;;;;;;13.32;7.63;;;-1.50;99.90;;;;;;4922437;29;20128;-78
2022/02/12 07:03:48;;;;;;;13.15;8.00;;;-1.50;99.90;;;;;;4921251;29;20490;-79
2022/02/12 07:06:16;;;;;;;11.57;6.90;;;-1.40;99.90;;;;;;5045992;23;20077;-79
2022/02/12 07:08:46;;;;;;;12.07;7.07;;;-1.10;99.90;;;;;;4936077;29;20044;-84
2022/02/12 07:11:15;;;;;;;14.55;8.10;;;-1.00;99.90;;;;;;4934184;29;20052;-81
2022/02/12 07:13:43;;;;;;;11.52;6.97;;;-0.80;99.90;;;;;;4922988;29;20080;-82
2022/02/12 07:16:10;;;;;;;11.70;7.50;;;-0.70;99.90;;;;;;4937363;29;20044;-81
2022/02/12 07:18:38;;;;;;;12.95;7.80;;;-0.90;99.90;;;;;;4921101;29;20055;-82
2022/02/12 07:21:06;;;;;;;11.57;7.30;;;-0.60;99.90;;;;;;4935746;29;20048;-78
2022/02/12 07:23:33;;;;;;;12.60;7.68;;;-0.40;99.90;;;;;;4937743;29;20080;-78
2022/02/12 07:26:02;;;;;;;12.00;7.65;;;-0.50;99.90;;;;;;4940962;29;20052;-80
2022/02/12 07:28:30;;;;;;;12.35;7.45;;;-0.90;99.90;;;;;;4941098;29;20087;-80
2022/02/12 07:30:58;;;;;;;13.73;7.43;;;-0.90;99.90;;;;;;4942087;29;20060;-80
2022/02/12 07:33:26;;;;;;;12.07;7.03;;;-0.90;99.90;;;;;;4940931;29;20040;-80
2022/02/12 07:35:53;;;;;;;11.98;7.13;;;-0.90;99.90;;;;;;4940209;29;20111;-81
2022/02/12 07:38:21;;;;;;;13.18;7.35;;;-0.90;99.90;;;;;;4915003;29;20052;-80
2022/02/12 07:40:48;;;;;;;14.05;8.00;;;-0.90;99.90;;;;;;4923840;29;20132;-80
2022/02/12 07:43:17;;;;;;;12.02;7.60;;;-0.50;99.90;;;;;;4938374;29;20055;-80
2022/02/12 07:45:44;;;;;;;13.18;7.30;;;-0.90;99.90;;;;;;4914763;29;20095;-80
2022/02/12 07:48:11;;;;;;;10.80;6.88;;;-0.80;99.90;;;;;;4905900;29;20087;-80
2022/02/12 07:50:39;;;;;;;12.27;7.22;;;-0.90;99.90;;;;;;4888278;29;20139;-80
2022/02/12 07:53:06;;;;;;;11.95;7.40;;;-0.80;99.90;;;;;;4912855;29;20104;-81
2022/02/12 07:55:33;;;;;;;14.75;7.50;;;-0.80;99.90;;;;;;4935886;29;20474;-81
2022/02/12 07:58:00;;;;;;;12.50;8.05;;;-0.70;99.90;;;;;;4923756;29;20059;-81
2022/02/12 08:00:29;;;;;;;16.33;9.02;;;-0.70;99.90;;;;;;4925881;29;20108;-81
2022/02/12 08:02:57;;;;;;;13.10;8.05;;;-0.70;99.90;;;;;;4926298;29;20048;-82
2022/02/12 08:05:25;;;;;;;12.20;7.95;;;-0.70;99.90;;;;;;4936236;29;20052;-81
2022/02/12 08:07:52;;;;;;;13.30;7.93;;;-0.70;99.90;;;;;;4914724;29;20080;-81
2022/02/12 08:13:04;;;;;;;14.65;7.90;;;-0.80;99.90;;;;;;4957151;28;20058;-81
2022/02/12 08:15:33;;;;;;;13.75;7.78;;;-0.80;99.90;;;;;;4928792;29;20048;-79
2022/02/12 08:18:00;;;;;;;14.40;8.57;;;-0.80;99.90;;;;;;4896335;29;20486;-82
2022/02/12 08:20:28;;;;;;;14.85;8.25;;;-0.70;99.90;;;;;;4911549;29;20072;-82
2022/02/12 08:22:55;;;;;;;14.30;8.25;;;-0.60;99.90;;;;;;4927077;29;20071;-82
2022/02/12 08:25:22;;;;;;;13.82;8.15;;;-0.60;99.90;;;;;;4910689;29;20087;-81
2022/02/12 08:27:50;;;;;;;15.63;8.63;;;-0.50;99.90;;;;;;4907984;29;20052;-80
2022/02/12 08:30:19;;;;;;;14.15;8.40;;;-0.50;99.90;;;;;;4878230;29;20044;-80
2022/02/12 08:32:48;;;;;;;17.13;9.88;;;-0.40;99.90;;;;;;4900463;29;20487;-80
2022/02/12 08:35:17;;;;;;;18.60;8.98;;;-0.40;99.90;;;;;;4906559;29;20054;-81
2022/02/12 08:37:46;;;;;;;17.30;9.13;;;-0.40;99.90;;;;;;4940378;29;20048;-82
2022/02/12 08:40:18;;;;;;;15.82;8.30;;;-0.30;99.90;;;;;;4923080;29;20032;-81
2022/02/12 08:42:45;;;;;;;14.77;8.48;;;-0.30;99.90;;;;;;4940591;29;20036;-83
2022/02/12 08:45:13;;;;;;;15.68;8.23;;;-0.20;99.90;;;;;;4940351;29;20040;-82
2022/02/12 08:47:41;;;;;;;14.05;8.40;;;-0.10;99.90;;;;;;4909839;29;20033;-82
2022/02/12 08:50:11;;;;;;;15.57;8.40;;;0.00;99.90;;;;;;4940923;29;20036;-82
2022/02/12 08:52:40;;;;;;;15.30;9.30;;;0.10;99.90;;;;;;4923134;29;20067;-82
2022/02/12 08:55:09;;;;;;;15.45;8.95;;;0.20;99.90;;;;;;4940538;29;20048;-82
2022/02/12 08:57:36;;;;;;;17.00;9.10;;;0.30;99.90;;;;;;4939843;29;20055;-81
2022/02/12 09:00:06;;;;;;;15.27;9.20;;;0.30;99.90;;;;;;4923410;29;20142;-80
2022/02/12 09:02:33;;;;;;;16.75;8.82;;;0.40;99.90;;;;;;4922368;29;20135;-79
2022/02/12 09:05:01;;;;;;;16.92;8.95;;;0.50;99.90;;;;;;4893136;29;20088;-80
2022/02/12 09:07:29;;;;;;;17.67;10.32;;;0.60;99.90;;;;;;4921350;29;20123;-79
2022/02/12 09:09:58;;;;;;;19.80;10.27;;;0.60;99.90;;;;;;4921969;29;20120;-80
2022/02/12 09:12:40;;;;;;;16.55;9.40;;;0.70;99.90;;;;;;4932626;29;20040;-83
2022/02/12 09:15:11;;;;;;;17.50;9.13;;;0.70;99.90;;;;;;4907161;29;20052;-79
2022/02/12 09:17:38;;;;;;;21.13;11.07;;;0.70;99.90;;;;;;4936298;29;20040;-83
2022/02/12 09:20:07;;;;;;;21.17;11.30;;;0.70;99.90;;;;;;4939412;29;20028;-81
2022/02/12 09:22:35;;;;;;;22.85;12.07;;;0.80;99.90;;;;;;4925370;29;20052;-80
2022/02/12 09:25:05;;;;;;;21.77;12.27;;;0.80;99.90;;;;;;4933631;29;20078;-80
2022/02/12 09:27:32;;;;;;;20.05;11.85;;;0.80;99.90;;;;;;4931712;29;20052;-80
2022/02/12 09:30:02;;;;;;;18.70;10.48;;;0.90;99.90;;;;;;4919414;29;20071;-83
2022/02/12 09:32:29;;;;;;;20.92;11.93;;;0.90;99.90;;;;;;4920711;29;20108;-82
2022/02/12 09:34:56;;;;;;;18.38;11.18;;;1.00;99.90;;;;;;4928349;29;20056;-80
2022/02/12 09:37:24;;;;;;;20.25;10.45;;;1.00;99.90;;;;;;4934714;29;20149;-83
2022/02/12 09:39:52;;;;;;;16.45;9.95;;;1.10;99.90;;;;;;4928298;29;20056;-83
2022/02/12 09:42:19;;;;;;;19.05;10.68;;;1.20;99.90;;;;;;4927776;29;20075;-80
2022/02/12 09:44:47;;;;;;;20.23;10.60;;;1.20;99.90;;;;;;4914661;29;20072;-82
2022/02/12 09:47:47;;;;;;;17.88;9.50;;;1.30;99.90;;;;;;4926631;29;20044;-81
2022/02/12 09:50:16;;;;;;;19.55;9.52;;;1.40;99.90;;;;;;5036061;23;20056;-81
2022/02/12 09:52:49;;;;;;;17.15;9.95;;;1.50;99.90;;;;;;4940695;28;20047;-81
2022/02/12 09:55:19;;;;;;;19.27;10.00;;;1.60;99.90;;;;;;4934368;29;20062;-81
2022/02/12 09:57:46;;;;;;;19.63;9.95;;;1.70;99.90;;;;;;4935762;29;20068;-82
2022/02/12 10:15:49;;;;;;;19.98;11.75;;;2.30;99.90;;;;;;5441961;23;20063;-87
2022/02/12 10:18:20;;;;;;;20.77;11.10;;;2.40;99.90;;;;;;4959955;29;20051;-87
2022/02/12 10:20:48;;;;;;;22.45;10.38;;;2.40;99.90;;;;;;5009650;23;20044;-88
2022/02/12 10:23:18;;;;;;;21.17;9.55;;;2.50;99.90;;;;;;4957784;29;20042;-85
2022/02/12 10:25:46;;;;;;;22.70;9.63;;;2.60;99.90;;;;;;4957205;29;20043;-86
2022/02/12 10:28:17;;;;;;;19.27;8.57;;;2.80;99.90;;;;;;4948279;29;20086;-84
2022/02/12 10:30:47;;;;;;;18.60;9.10;;;2.90;99.90;;;;;;4953240;29;20055;-86
2022/02/12 10:33:15;;;;;;;18.92;9.52;;;3.00;99.90;;;;;;4949673;29;20048;-87
2022/02/12 10:35:55;;;;;;;19.75;9.73;;;3.10;99.90;;;;;;4945596;29;20054;-84
2022/02/12 10:38:26;;;;;;;18.30;9.00;;;3.20;99.90;;;;;;4923029;29;20082;-85
2022/02/12 10:41:08;;;;;;;15.75;8.52;;;3.40;99.90;;;;;;4940886;29;20047;-85
2022/02/12 10:43:35;;;;;;;16.67;8.13;;;3.50;99.90;;;;;;4948548;29;20047;-87
2022/02/12 10:46:05;;;;;;;17.67;8.27;;;3.60;99.90;;;;;;4939087;29;20143;-83
2022/02/12 10:48:36;;;;;;;14.00;7.68;;;3.70;99.90;;;;;;4922406;29;20103;-83
2022/02/12 10:51:05;;;;;;;17.00;7.50;;;3.80;99.90;;;;;;4939295;29;20058;-85
2022/02/12 10:53:33;;;;;;;16.30;7.43;;;3.80;99.90;;;;;;4939467;29;20387;-84
2022/02/12 10:56:02;;;;;;;15.98;7.00;;;3.90;99.90;;;;;;4939606;29;20135;-86
2022/02/12 10:58:29;;;;;;;14.23;6.78;;;4.00;99.90;;;;;;4939788;29;20166;-88
2022/02/12 11:00:57;;;;;;;15.52;6.97;;;4.10;99.90;;;;;;4939016;29;20134;-85
2022/02/12 11:03:26;;;;;;;16.17;7.82;;;4.10;99.90;;;;;;4939263;29;20136;-87
2022/02/12 11:05:54;;;;;;;20.65;9.18;;;4.20;99.90;;;;;;4939197;29;20051;-83
2022/02/12 11:08:22;;;;;;;15.23;6.65;;;4.30;99.90;;;;;;4937488;29;20140;-83
2022/02/12 11:10:49;;;;;;;8.60;4.20;;;4.40;99.90;;;;;;4939481;29;20082;-85
2022/02/12 11:13:19;;;;;;;6.75;3.30;;;4.50;99.90;;;;;;4940464;29;20182;-86
2022/02/12 11:15:47;;;;;;;6.45;3.13;;;4.60;99.90;;;;;;4938987;29;20067;-86
2022/02/12 11:18:19;;;;;;;5.47;2.40;;;4.80;99.30;;;;;;4942095;29;20127;-92
2022/02/12 11:20:50;;;;;;;5.85;2.17;;;4.90;98.10;;;;;;4941099;29;20091;-88
2022/02/12 11:23:30;;;;;;;3.88;1.70;;;5.00;95.80;;;;;;4944425;29;20131;-93
2022/02/12 11:26:21;;;;;;;4.93;1.70;;;5.20;93.60;;;;;;4945265;29;20047;-94
2022/02/12 11:28:50;;;;;;;4.05;1.88;;;5.20;91.00;;;;;;4945659;29;20102;-88
2022/02/12 11:31:24;;;;;;;5.97;2.03;;;5.30;88.80;;;;;;4925826;29;20102;-91
2022/02/12 11:34:10;;;;;;;5.33;1.60;;;5.40;86.20;;;;;;4941156;29;20055;-88
2022/02/12 11:36:41;;;;;;;3.78;1.55;;;5.50;84.20;;;;;;4942561;29;20456;-89
2022/02/12 11:39:11;;;;;;;5.13;1.80;;;5.50;85.20;;;;;;4941201;29;20119;-88
2022/02/12 11:41:40;;;;;;;5.22;1.70;;;5.60;81.80;;;;;;4940518;29;20101;-89
2022/02/12 11:44:07;;;;;;;3.88;1.77;;;5.70;79.60;;;;;;4940813;29;20055;-89
2022/02/12 11:47:05;;;;;;;4.75;1.90;;;5.80;79.20;;;;;;4940260;29;20146;-85
2022/02/12 11:49:34;;;;;;;3.67;1.50;;;5.80;76.80;;;;;;4922967;29;20407;-89
2022/02/12 11:52:07;;;;;;;5.22;1.80;;;5.90;75.10;;;;;;4925141;29;20082;-90
2022/02/12 11:54:57;;;;;;;4.85;1.90;;;6.00;74.50;;;;;;4926895;29;20054;-93
2022/02/12 11:57:45;;;;;;;3.42;1.40;;;6.10;72.40;;;;;;4926544;29;20100;-91
2022/02/12 12:00:42;;;;;;;3.33;1.40;;;6.10;71.70;;;;;;4924327;29;20123;-93
2022/02/12 12:03:11;;;;;;;3.85;1.20;;;6.20;69.80;;;;;;4831365;29;20097;-88
2022/02/12 12:08:33;;;;;;;4.20;1.60;;;6.40;67.80;;;;;;4924407;29;20427;-89
2022/02/12 12:11:12;;;;;;;4.75;1.73;;;6.60;68.00;;;;;;4923713;29;20139;-91
2022/02/12 12:13:43;;;;;;;4.03;1.35;;;6.70;67.00;;;;;;4920677;29;20539;-86
2022/02/12 12:16:33;;;;;;;4.40;1.80;;;6.80;66.50;;;;;;4925700;29;20062;-86
2022/02/12 12:19:03;;;;;;;4.15;1.70;;;6.90;66.10;;;;;;4924256;29;20047;-87
2022/02/12 12:21:32;;;;;;;3.10;1.55;;;7.00;65.30;;;;;;4939069;29;20118;-90
2022/02/12 12:24:02;;;;;;;4.85;1.67;;;7.10;65.60;;;;;;4940676;29;20059;-90
2022/02/12 12:26:42;;;;;;;3.55;1.52;;;7.30;65.20;;;;;;4940666;29;20056;-83
2022/02/12 12:32:07;;;;;;;5.10;2.03;;;7.60;64.80;;;;;;4936437;29;20544;-82
2022/02/12 12:34:34;;;;;;;3.80;1.80;;;7.80;64.70;;;;;;4919693;29;20139;-81
2022/02/12 12:37:05;;;;;;;5.95;2.10;;;8.00;63.90;;;;;;4935801;29;20044;-80
2022/02/12 12:39:37;;;;;;;4.93;2.08;;;8.20;62.60;;;;;;4925326;29;20052;-82
2022/02/12 12:42:14;;;;;;;6.18;2.40;;;8.30;61.80;;;;;;4934537;29;20040;-80
2022/02/12 12:44:42;;;;;;;4.88;2.50;;;8.40;60.40;;;;;;4936927;29;20059;-80
2022/02/12 12:47:10;;;;;;;5.60;2.40;;;8.50;59.70;;;;;;4917766;29;20450;-79
2022/02/12 12:49:40;;;;;;;4.47;2.50;;;8.60;59.80;;;;;;4936014;29;20048;-85
2022/02/12 12:52:11;;;;;;;4.53;2.20;;;8.70;60.00;;;;;;4936408;29;20056;-85
2022/02/12 12:54:42;;;;;;;4.72;2.60;;;8.90;60.50;;;;;;4919911;29;20424;-81
2022/02/12 12:57:11;;;;;;;7.70;3.60;;;9.00;59.60;;;;;;4936333;29;20150;-85
2022/02/12 12:59:50;;;;;;;6.50;2.80;;;9.20;60.20;;;;;;4937004;29;20062;-82
2022/02/12 13:02:17;;;;;;;5.30;2.88;;;9.30;59.80;;;;;;4936665;29;20111;-84
2022/02/12 13:04:49;;;;;;;5.95;3.00;;;9.50;60.50;;;;;;4937470;29;20090;-85
2022/02/12 13:07:17;;;;;;;6.13;2.83;;;9.70;60.10;;;;;;4938295;29;20130;-83
2022/02/12 13:09:47;;;;;;;6.38;3.20;;;9.80;59.60;;;;;;4920355;29;20052;-83
2022/02/12 13:12:35;;;;;;;8.63;3.22;;;10.10;59.10;;;;;;4937096;29;20155;-83
2022/02/12 13:15:06;;;;;;;6.18;3.20;;;10.40;58.50;;;;;;4936807;29;20083;-82
2022/02/12 13:17:40;;;;;;;6.47;3.10;;;10.80;58.40;;;;;;4937562;29;20130;-84
2022/02/12 13:20:10;;;;;;;7.18;3.10;;;11.00;56.80;;;;;;4937636;29;20059;-82
2022/02/12 13:22:37;;;;;;;6.85;3.42;;;11.30;57.10;;;;;;4937523;29;20059;-83
2022/02/12 13:25:16;;;;;;;4.90;2.95;;;11.60;56.00;;;;;;4937167;29;20139;-85
2022/02/12 13:27:46;;;;;;;6.50;2.65;;;11.90;53.80;;;;;;4937874;29;20051;-84
2022/02/12 13:30:15;;;;;;;5.35;2.67;;;12.00;53.50;;;;;;4938608;29;20175;-82
2022/02/12 13:32:44;;;;;;;5.43;2.47;;;12.30;52.50;;;;;;4924427;29;20408;-84
2022/02/12 13:35:16;;;;;;;5.88;2.80;;;12.50;51.60;;;;;;4941980;29;20130;-81
2022/02/12 13:37:49;;;;;;;5.82;2.78;;;12.60;50.90;;;;;;4923850;29;20075;-83
2022/02/12 13:40:23;;;;;;;5.03;2.80;;;13.00;50.30;;;;;;4941109;29;20054;-84
2022/02/12 13:42:54;;;;;;;5.22;2.63;;;13.30;49.30;;;;;;4941653;29;20044;-83
2022/02/12 13:45:23;;;;;;;5.70;2.75;;;13.60;48.80;;;;;;4941433;29;20148;-83
2022/02/12 13:47:57;;;;;;;5.00;2.60;;;14.00;48.20;;;;;;4941732;29;20062;-83
2022/02/12 13:50:24;;;;;;;5.88;2.72;;;14.60;47.30;;;;;;4941147;29;20189;-83
2022/02/12 13:52:58;;;;;;;5.25;2.85;;;15.40;52.80;;;;;;4923910;29;20051;-84
2022/02/12 13:55:30;;;;;;;5.38;2.80;;;16.10;44.60;;;;;;4940701;29;20058;-82
2022/02/12 13:57:57;;;;;;;5.75;2.55;;;17.30;43.10;;;;;;4941203;29;20138;-83
2022/02/12 14:00:24;;;;;;;4.78;2.40;;;18.60;41.40;;;;;;4940933;29;20130;-82
2022/02/12 14:02:54;;;;;;;4.68;2.60;;;20.10;39.30;;;;;;4940977;29;20126;-83
2022/02/12 14:05:23;;;;;;;5.35;2.55;;;21.30;37.00;;;;;;4923920;29;20047;-82
2022/02/12 14:07:52;;;;;;;4.82;2.55;;;22.30;35.50;;;;;;4940540;29;20051;-81
2022/02/12 14:10:21;;;;;;;5.22;2.70;;;23.40;34.50;;;;;;4940515;29;20075;-83
2022/02/12 14:12:49;;;;;;;5.55;2.60;;;24.30;32.70;;;;;;4940267;29;20062;-83
2022/02/12 14:15:16;;;;;;;6.68;2.40;;;24.80;32.00;;;;;;4940806;29;20138;-83
2022/02/12 14:17:43;;;;;;;3.95;2.30;;;25.40;31.30;;;;;;4941364;29;20130;-83
2022/02/12 14:20:11;;;;;;;5.38;2.53;;;25.90;31.80;;;;;;4941244;29;20110;-83
2022/02/12 14:22:38;;;;;;;4.88;3.00;;;26.20;30.20;;;;;;4941399;29;20139;-83
2022/02/12 14:25:07;;;;;;;4.10;2.40;;;25.80;30.70;;;;;;4940586;29;20079;-82
2022/02/12 14:27:34;;;;;;;4.45;2.30;;;25.50;30.00;;;;;;4940182;29;20569;-83
2022/02/12 14:30:04;;;;;;;5.00;2.80;;;25.40;29.90;;;;;;4940703;29;20450;-84
2022/02/12 14:32:32;;;;;;;4.78;2.40;;;25.20;30.00;;;;;;4940534;29;20050;-84
2022/02/12 14:34:59;;;;;;;4.32;2.40;;;24.90;29.90;;;;;;4943613;29;20143;-82
2022/02/12 14:37:26;;;;;;;4.18;2.35;;;24.50;30.00;;;;;;4948150;29;20086;-83
2022/02/12 14:39:54;;;;;;;5.68;2.70;;;24.40;30.20;;;;;;4956161;29;20047;-83
2022/02/12 14:42:21;;;;;;;6.38;2.80;;;24.40;30.20;;;;;;4956099;29;20412;-83
2022/02/12 14:44:48;;;;;;;5.95;3.30;;;24.40;30.20;;;;;;4924227;29;20122;-83
2022/02/12 14:47:16;;;;;;;5.65;3.38;;;24.40;30.10;;;;;;4939578;29;20122;-78
2022/02/12 14:49:44;;;;;;;4.57;2.50;;;24.50;30.20;;;;;;4937697;29;20135;-81
2022/02/12 14:52:12;;;;;;;4.38;2.70;;;24.80;30.00;;;;;;4937813;29;20103;-79
2022/02/12 14:54:39;;;;;;;5.45;2.60;;;24.70;29.90;;;;;;4937696;29;20056;-79
2022/02/12 14:57:06;;;;;;;4.90;2.70;;;24.30;29.80;;;;;;4937927;29;20115;-79
2022/02/12 14:59:33;;;;;;;5.25;3.03;;;24.00;30.00;;;;;;4936362;29;20051;-78
2022/02/12 15:02:01;;;;;;;5.63;3.28;;;23.90;30.30;;;;;;4937648;29;20467;-80
2022/02/12 15:04:29;;;;;;;4.63;2.58;;;23.80;30.30;;;;;;4937529;29;20055;-81
2022/02/12 15:06:56;;;;;;;6.10;2.88;;;23.50;30.40;;;;;;4936578;29;20410;-81
2022/02/12 15:09:23;;;;;;;5.60;3.03;;;23.00;30.70;;;;;;4937788;29;20143;-80
2022/02/12 15:11:51;;;;;;;5.63;2.80;;;22.50;35.10;;;;;;4937872;29;20131;-80
2022/02/12 15:14:19;;;;;;;6.70;3.13;;;22.00;33.00;;;;;;4937890;29;20063;-80
2022/02/12 15:16:46;;;;;;;4.95;2.85;;;21.60;32.30;;;;;;4937738;29;20051;-80
2022/02/12 15:19:15;;;;;;;5.93;2.90;;;21.10;36.30;;;;;;4937244;29;20078;-80
2022/02/12 15:21:44;;;;;;;4.55;2.50;;;20.70;33.00;;;;;;4937114;29;20382;-79
2022/02/12 15:24:11;;;;;;;5.57;2.90;;;20.10;33.60;;;;;;4937106;29;20404;-78
2022/02/12 15:26:39;;;;;;;6.68;3.15;;;19.70;34.10;;;;;;4937086;29;20058;-79
2022/02/12 15:29:06;;;;;;;5.38;3.22;;;19.40;34.60;;;;;;4936974;29;20090;-79
2022/02/12 15:31:33;;;;;;;6.28;2.80;;;19.20;35.00;;;;;;4937389;29;20090;-81
2022/02/12 15:34:01;;;;;;;7.00;3.30;;;18.90;35.30;;;;;;4936699;29;20557;-78
2022/02/12 15:36:28;;;;;;;5.00;2.97;;;18.60;35.70;;;;;;4937660;29;20118;-79
2022/02/12 15:38:57;;;;;;;6.05;3.13;;;18.50;40.30;;;;;;4937431;29;20219;-78
2022/02/12 15:41:24;;;;;;;7.72;3.45;;;17.70;36.40;;;;;;4937007;29;20143;-77
2022/02/12 15:43:51;;;;;;;5.13;3.10;;;17.10;37.30;;;;;;4937655;29;20055;-80
2022/02/12 15:46:19;;;;;;;7.53;3.17;;;16.50;38.10;;;;;;4937668;29;20150;-80
2022/02/12 15:48:47;;;;;;;5.80;3.40;;;15.80;38.90;;;;;;4938990;29;20052;-80
2022/02/12 15:51:15;;;;;;;6.50;3.60;;;15.20;39.80;;;;;;4938588;29;20501;-80
2022/02/12 15:53:43;;;;;;;7.13;3.50;;;14.70;40.80;;;;;;4942199;29;20051;-79
2022/02/12 15:56:12;;;;;;;6.85;3.40;;;14.30;41.50;;;;;;4921899;29;20090;-81
2022/02/12 15:58:41;;;;;;;7.68;3.40;;;13.90;42.30;;;;;;4936848;29;20048;-79
2022/02/12 16:01:12;;;;;;;5.07;3.30;;;13.50;42.80;;;;;;4936664;29;20059;-80
2022/02/12 16:03:39;;;;;;;6.72;3.60;;;13.20;43.40;;;;;;4936526;29;20059;-80
2022/02/12 16:06:06;;;;;;;6.38;3.60;;;13.10;44.00;;;;;;4936716;29;20059;-80
2022/02/12 16:08:35;;;;;;;7.15;3.50;;;13.10;44.50;;;;;;4938884;29;20055;-80
2022/02/12 16:11:03;;;;;;;6.13;3.80;;;13.20;44.40;;;;;;4938354;29;20405;-80
2022/02/12 16:13:32;;;;;;;6.43;3.80;;;13.10;44.40;;;;;;4938163;29;20056;-78
2022/02/12 16:16:02;;;;;;;7.35;3.58;;;13.00;44.60;;;;;;4938306;29;20102;-80
2022/02/12 16:18:30;;;;;;;5.95;3.60;;;12.70;52.70;;;;;;4940245;29;20058;-80
2022/02/12 16:20:57;;;;;;;7.28;3.55;;;12.20;65.20;;;;;;4921892;29;20048;-79
2022/02/12 16:23:24;;;;;;;6.05;3.67;;;12.30;62.30;;;;;;4939357;29;20052;-79
2022/02/12 16:25:51;;;;;;;6.25;3.38;;;12.00;65.80;;;;;;4937358;29;20048;-80
2022/02/12 16:28:19;;;;;;;5.90;3.63;;;;;;;;;;4941774;29;20102;-80
2022/02/12 16:30:49;;;;;;;6.13;3.50;;;11.20;81.70;;;;;;4940535;29;20048;-81
2022/02/12 16:33:16;;;;;;;6.10;3.42;;;11.10;62.60;;;;;;4937377;29;20406;-81
2022/02/12 16:35:43;;;;;;;7.95;3.80;;;10.60;63.00;;;;;;4936491;29;20047;-81
2022/02/12 16:38:10;;;;;;;7.30;3.85;;;10.70;51.90;;;;;;4935940;29;20047;-81
2022/02/12 16:40:38;;;;;;;5.50;3.55;;;10.70;66.30;;;;;;4936145;29;20097;-79
2022/02/12 16:43:05;;;;;;;6.82;3.70;;;10.00;50.40;;;;;;4935872;29;20489;-81
2022/02/12 16:45:33;;;;;;;7.10;3.47;;;9.80;50.80;;;;;;4936139;29;20074;-79
2022/02/12 16:48:01;;;;;;;6.32;3.30;;;9.50;51.10;;;;;;4934744;29;20477;-80
2022/02/12 16:50:28;;;;;;;6.80;3.63;;;9.30;51.70;;;;;;4935884;29;20102;-80
2022/02/12 16:52:55;;;;;;;7.22;3.60;;;9.10;52.00;;;;;;4934932;29;20490;-80
2022/02/12 16:55:26;;;;;;;6.53;3.30;;;8.90;52.40;;;;;;4935573;29;20130;-80
2022/02/12 16:57:53;;;;;;;7.20;3.38;;;;;;;;;;4935910;29;20066;-80
2022/02/12 17:00:21;;;;;;;5.18;3.28;;;8.70;76.00;;;;;;4935978;29;20054;-81
2022/02/12 17:02:49;;;;;;;6.70;3.08;;;8.20;53.60;;;;;;4935933;29;20048;-80
2022/02/12 17:05:22;;;;;;;8.80;4.50;;;8.30;54.80;;;;;;4935134;29;20055;-82
2022/02/12 17:07:50;;;;;;;7.28;3.80;;;8.10;55.10;;;;;;4935753;29;20063;-82
2022/02/12 17:10:18;;;;;;;6.13;3.40;;;7.90;55.60;;;;;;4935789;29;20058;-80
2022/02/12 17:12:45;;;;;;;5.80;3.13;;;7.80;55.90;;;;;;4935854;29;20126;-80
2022/02/12 17:15:12;;;;;;;7.82;3.38;;;7.70;56.10;;;;;;4935558;29;20142;-79
2022/02/12 17:17:40;;;;;;;6.60;3.05;;;7.60;56.20;;;;;;4935162;29;20058;-80
2022/02/12 17:20:10;;;;;;;6.47;3.20;;;7.50;56.40;;;;;;4935345;29;20083;-81
2022/02/12 17:22:39;;;;;;;6.97;3.30;;;7.50;56.50;;;;;;4935583;29;20052;-81
2022/02/12 17:25:07;;;;;;;5.43;3.17;;;7.40;56.50;;;;;;4934234;29;20057;-81
2022/02/12 17:27:35;;;;;;;6.45;3.10;;;7.30;56.50;;;;;;4935575;29;20135;-80
2022/02/12 17:30:03;;;;;;;5.78;3.13;;;7.30;56.50;;;;;;4935493;29;20490;-82
2022/02/12 17:32:30;;;;;;;5.85;3.10;;;7.20;56.50;;;;;;4935348;29;20111;-80
2022/02/12 17:34:58;;;;;;;5.53;2.90;;;7.20;56.80;;;;;;4935433;29;20132;-80
2022/02/12 17:37:26;;;;;;;6.53;3.00;;;7.20;57.10;;;;;;4933775;29;20397;-81
2022/02/12 17:39:54;;;;;;;5.43;2.75;;;7.20;57.60;;;;;;4935870;29;20079;-81
2022/02/12 17:42:21;;;;;;;5.43;2.95;;;7.10;57.70;;;;;;4918802;29;20409;-82
2022/02/12 17:44:48;;;;;;;5.75;2.90;;;7.00;57.80;;;;;;4935717;29;20056;-83
2022/02/12 17:47:15;;;;;;;5.07;2.95;;;7.00;58.20;;;;;;4935498;29;20131;-81
2022/02/12 17:49:42;;;;;;;5.93;3.05;;;7.00;58.70;;;;;;4936174;29;20474;-82
2022/02/12 17:52:09;;;;;;;6.20;3.08;;;6.90;58.70;;;;;;4944078;29;20079;-82
2022/02/12 17:54:36;;;;;;;7.03;2.83;;;6.80;58.80;;;;;;4940327;29;20087;-79
2022/02/12 17:57:05;;;;;;;5.40;3.03;;;6.70;58.90;;;;;;4937390;29;20111;-82
2022/02/12 17:59:32;;;;;;;6.22;2.92;;;6.70;59.00;;;;;;4939199;29;20560;-82
2022/02/12 18:01:59;;;;;;;5.82;2.95;;;6.60;59.50;;;;;;4936985;29;20246;-84
2022/02/12 18:04:26;;;;;;;4.43;2.50;;;6.60;59.60;;;;;;4904120;29;20408;-84
2022/02/12 18:06:53;;;;;;;5.50;3.15;;;6.50;60.40;;;;;;4936651;29;20139;-82
2022/02/12 18:09:39;;;;;;;6.65;2.55;;;6.50;60.40;;;;;;4936112;29;20142;-82
2022/02/12 18:12:11;;;;;;;5.57;2.67;;;6.40;60.70;;;;;;4935470;29;20075;-81
2022/02/12 18:14:40;;;;;;;5.50;2.80;;;6.30;61.10;;;;;;4935187;29;20504;-82
2022/02/12 18:17:09;;;;;;;6.50;2.85;;;6.30;61.10;;;;;;4935283;29;20085;-82
2022/02/12 18:19:36;;;;;;;6.55;3.00;;;6.20;61.90;;;;;;4938032;29;20481;-82
2022/02/12 18:22:04;;;;;;;5.28;3.03;;;6.20;62.10;;;;;;4921563;29;20048;-86
2022/02/12 18:24:32;;;;;;;7.30;2.90;;;6.10;62.00;;;;;;4940783;29;20134;-83
2022/02/12 18:27:01;;;;;;;5.97;2.90;;;6.10;62.20;;;;;;4939392;29;20146;-81
2022/02/12 18:29:29;;;;;;;6.78;3.60;;;6.00;62.60;;;;;;4941257;29;20055;-87
2022/02/12 18:31:57;;;;;;;7.05;3.92;;;6.00;63.30;;;;;;4939629;29;20558;-81
2022/02/12 18:34:24;;;;;;;7.72;4.18;;;5.90;63.70;;;;;;4938184;29;20529;-79
2022/02/12 18:36:51;;;;;;;7.88;4.50;;;5.90;64.30;;;;;;4938242;29;20446;-77
2022/02/12 18:39:19;;;;;;;8.05;4.00;;;5.80;64.90;;;;;;4938516;29;20048;-81
2022/02/12 18:41:47;;;;;;;7.40;3.70;;;5.70;66.40;;;;;;4938840;29;20139;-80
2022/02/12 18:44:14;;;;;;;6.90;3.63;;;5.60;66.30;;;;;;4938096;29;20425;-82
2022/02/12 18:46:43;;;;;;;8.05;3.60;;;5.40;66.70;;;;;;4938044;29;20478;-80
2022/02/12 18:49:10;;;;;;;5.05;2.85;;;5.30;67.70;;;;;;4938119;29;20461;-82
2022/02/12 18:51:40;;;;;;;6.30;3.45;;;5.20;68.60;;;;;;4938544;29;20052;-83
2022/02/12 18:54:07;;;;;;;6.55;3.30;;;5.20;70.50;;;;;;4938270;29;20154;-81
2022/02/12 18:56:36;;;;;;;10.15;3.10;;;5.10;70.70;;;;;;4938122;29;20138;-81
2022/02/12 18:59:05;;;;;;;7.15;3.08;;;5.10;71.20;;;;;;4938143;29;20058;-83
2022/02/12 19:01:33;;;;;;;6.30;2.90;;;5.00;71.50;;;;;;4921188;29;20493;-82
2022/02/12 19:04:01;;;;;;;5.82;2.30;;;5.00;72.20;;;;;;4937659;29;20055;-81
2022/02/12 19:06:28;;;;;;;5.90;2.78;;;4.90;72.90;;;;;;4937692;29;20135;-81
2022/02/12 19:08:55;;;;;;;5.57;2.80;;;4.80;73.60;;;;;;4937668;29;20058;-83
2022/02/12 19:11:22;;;;;;;6.80;3.58;;;4.80;74.80;;;;;;4937961;29;20139;-80
2022/02/12 19:13:50;;;;;;;6.78;3.20;;;4.80;75.20;;;;;;4937499;29;20130;-80
2022/02/12 19:16:18;;;;;;;7.43;3.05;;;4.70;76.00;;;;;;4937210;29;20087;-80
2022/02/12 19:18:46;;;;;;;8.63;3.72;;;4.60;76.50;;;;;;4937027;29;20068;-83
2022/02/12 19:21:15;;;;;;;5.65;2.83;;;4.60;76.90;;;;;;4938202;29;20398;-88